sensor_id;sensor_type;location;lat;lon;timestamp;P1;durP1;ratioP1;P2;durP2;ratioP2
2099;SDS011;1055;48.854;9.302;2022-12-18T00:01:29;60.47;;;31.45;;
2099;SDS011;1055;48.854;9.302;2022-12-18T00:03:58;58.67;;;30.15;;
2099;SDS011;1055;48.854;9.302;2022-12-18T00:06:25;69.20;;;31.25;;
2099;SDS011;1055;48.854;9.302;2022-12-18T00:08:52;60.38;;;30.42;;
2099;SDS011;1055;48.854;9.302;2022-12-18T00:11:19;64.03;;;30.52;;
2099;SDS011;1055;48.854;9.302;2022-12-18T00:13:47;63.53;;;30.30;;
2099;SDS011;1055;48.854;9.302;2022-12-18T00:16:15;63.20;;;31.90;;
2099;SDS011;1055;48.854;9.302;2022-12-18T00:18:45;61.13;;;30.85;;
2099;SDS011;1055;48.854;9.302;2022-12-18T00:21:11;65.18;;;31.00;;
2099;SDS011;1055;48.854;9.302;2022-12-18T00:23:38;60.63;;;31.08;;
2099;SDS011;1055;48.854;9.302;2022-12-18T00:26:06;57.35;;;29.17;;
2099;SDS011;1055;48.854;9.302;2022-12-18T00:28:35;58.35;;;29.55;;
2099;SDS011;1055;48.854;9.302;2022-12-18T00:33:26;64.87;;;30.03;;
2099;SDS011;1055;48.854;9.302;2022-12-18T00:35:52;67.72;;;32.28;;
2099;SDS011;1055;48.854;9.302;2022-12-18T00:38:18;60.27;;;32.93;;
2099;SDS011;1055;48.854;9.302;2022-12-18T00:40:43;67.10;;;32.17;;
2099;SDS011;1055;48.854;9.302;2022-12-18T00:43:09;75.63;;;33.37;;
2099;SDS011;1055;48.854;9.302;2022-12-18T00:45:35;65.67;;;32.30;;
2099;SDS011;1055;48.854;9.302;2022-12-18T00:48:00;68.40;;;32.67;;
2099;SDS011;1055;48.854;9.302;2022-12-18T00:50:26;76.90;;;36.37;;
2099;SDS011;1055;48.854;9.302;2022-12-18T00:52:52;63.23;;;31.87;;
2099;SDS011;1055;48.854;9.302;2022-12-18T00:55:17;66.73;;;32.73;;
2099;SDS011;1055;48.854;9.302;2022-12-18T00:57:43;69.45;;;34.20;;
2099;SDS011;1055;48.854;9.302;2022-12-18T01:00:13;72.80;;;35.20;;
2099;SDS011;1055;48.854;9.302;2022-12-18T01:02:39;94.07;;;37.75;;
2099;SDS011;1055;48.854;9.302;2022-12-18T01:05:06;70.95;;;33.35;;
2099;SDS011;1055;48.854;9.302;2022-12-18T01:07:32;76.28;;;38.88;;
2099;SDS011;1055;48.854;9.302;2022-12-18T01:09:58;86.53;;;39.60;;
2099;SDS011;1055;48.854;9.302;2022-12-18T01:12:23;76.67;;;40.47;;
2099;SDS011;1055;48.854;9.302;2022-12-18T01:14:49;76.70;;;34.70;;
2099;SDS011;1055;48.854;9.302;2022-12-18T01:17:14;79.47;;;38.80;;
2099;SDS011;1055;48.854;9.302;2022-12-18T01:19:40;75.27;;;36.63;;
2099;SDS011;1055;48.854;9.302;2022-12-18T01:22:05;81.50;;;38.83;;
2099;SDS011;1055;48.854;9.302;2022-12-18T01:24:31;79.40;;;38.13;;
2099;SDS011;1055;48.854;9.302;2022-12-18T01:26:57;77.20;;;36.50;;
2099;SDS011;1055;48.854;9.302;2022-12-18T01:29:22;79.10;;;39.57;;
2099;SDS011;1055;48.854;9.302;2022-12-18T01:31:48;80.10;;;35.87;;
2099;SDS011;1055;48.854;9.302;2022-12-18T01:34:14;80.37;;;36.97;;
2099;SDS011;1055;48.854;9.302;2022-12-18T01:36:40;74.87;;;36.00;;
2099;SDS011;1055;48.854;9.302;2022-12-18T01:39:06;74.32;;;34.10;;
2099;SDS011;1055;48.854;9.302;2022-12-18T01:41:35;67.10;;;30.90;;
2099;SDS011;1055;48.854;9.302;2022-12-18T01:49:45;70.27;;;32.70;;
2099;SDS011;1055;48.854;9.302;2022-12-18T01:52:11;79.23;;;33.00;;
2099;SDS011;1055;48.854;9.302;2022-12-18T01:54:37;68.93;;;34.20;;
2099;SDS011;1055;48.854;9.302;2022-12-18T01:57:02;64.50;;;31.30;;
2099;SDS011;1055;48.854;9.302;2022-12-18T01:59:28;75.63;;;33.17;;
2099;SDS011;1055;48.854;9.302;2022-12-18T02:01:57;72.35;;;32.50;;
2099;SDS011;1055;48.854;9.302;2022-12-18T02:04:23;73.60;;;29.83;;
2099;SDS011;1055;48.854;9.302;2022-12-18T02:06:51;68.18;;;32.28;;
2099;SDS011;1055;48.854;9.302;2022-12-18T02:09:46;60.85;;;31.23;;
2099;SDS011;1055;48.854;9.302;2022-12-18T02:12:18;79.57;;;36.50;;
2099;SDS011;1055;48.854;9.302;2022-12-18T02:17:54;66.13;;;29.23;;
2099;SDS011;1055;48.854;9.302;2022-12-18T02:20:30;63.10;;;30.60;;
2099;SDS011;1055;48.854;9.302;2022-12-18T02:28:42;71.70;;;38.38;;
2099;SDS011;1055;48.854;9.302;2022-12-18T02:31:17;73.57;;;34.40;;
2099;SDS011;1055;48.854;9.302;2022-12-18T02:33:50;68.18;;;30.95;;
2099;SDS011;1055;48.854;9.302;2022-12-18T02:36:19;63.22;;;28.75;;
2099;SDS011;1055;48.854;9.302;2022-12-18T02:38:46;62.55;;;29.27;;
2099;SDS011;1055;48.854;9.302;2022-12-18T02:41:13;60.63;;;29.65;;
2099;SDS011;1055;48.854;9.302;2022-12-18T02:43:45;64.40;;;30.42;;
2099;SDS011;1055;48.854;9.302;2022-12-18T02:46:22;61.85;;;30.95;;
2099;SDS011;1055;48.854;9.302;2022-12-18T02:48:54;66.22;;;28.52;;
2099;SDS011;1055;48.854;9.302;2022-12-18T02:51:29;56.53;;;26.67;;
2099;SDS011;1055;48.854;9.302;2022-12-18T02:54:07;61.83;;;29.50;;
2099;SDS011;1055;48.854;9.302;2022-12-18T02:56:41;69.65;;;34.00;;
2099;SDS011;1055;48.854;9.302;2022-12-18T02:59:30;65.10;;;31.63;;
2099;SDS011;1055;48.854;9.302;2022-12-18T03:02:09;74.30;;;33.25;;
2099;SDS011;1055;48.854;9.302;2022-12-18T03:04:53;60.97;;;30.23;;
2099;SDS011;1055;48.854;9.302;2022-12-18T03:07:34;56.53;;;28.77;;
2099;SDS011;1055;48.854;9.302;2022-12-18T03:10:14;50.22;;;25.95;;
2099;SDS011;1055;48.854;9.302;2022-12-18T03:12:53;60.67;;;28.27;;
2099;SDS011;1055;48.854;9.302;2022-12-18T03:15:28;52.05;;;26.80;;
2099;SDS011;1055;48.854;9.302;2022-12-18T03:18:01;61.78;;;29.02;;
2099;SDS011;1055;48.854;9.302;2022-12-18T03:20:31;57.35;;;30.50;;
2099;SDS011;1055;48.854;9.302;2022-12-18T03:23:02;63.30;;;26.30;;
2099;SDS011;1055;48.854;9.302;2022-12-18T03:25:33;58.25;;;28.25;;
2099;SDS011;1055;48.854;9.302;2022-12-18T03:28:02;58.10;;;28.77;;
2099;SDS011;1055;48.854;9.302;2022-12-18T03:30:30;62.08;;;30.13;;
2099;SDS011;1055;48.854;9.302;2022-12-18T03:33:01;62.88;;;29.00;;
2099;SDS011;1055;48.854;9.302;2022-12-18T03:35:34;59.90;;;28.42;;
2099;SDS011;1055;48.854;9.302;2022-12-18T03:38:03;60.42;;;30.65;;
2099;SDS011;1055;48.854;9.302;2022-12-18T03:40:31;62.53;;;26.70;;
2099;SDS011;1055;48.854;9.302;2022-12-18T03:43:32;57.65;;;29.05;;
2099;SDS011;1055;48.854;9.302;2022-12-18T03:46:26;59.83;;;28.50;;
2099;SDS011;1055;48.854;9.302;2022-12-18T03:49:23;56.45;;;27.80;;
2099;SDS011;1055;48.854;9.302;2022-12-18T03:52:13;50.15;;;24.75;;
2099;SDS011;1055;48.854;9.302;2022-12-18T03:54:59;65.05;;;30.17;;
2099;SDS011;1055;48.854;9.302;2022-12-18T03:57:28;51.63;;;27.88;;
2099;SDS011;1055;48.854;9.302;2022-12-18T03:59:58;48.55;;;27.13;;
2099;SDS011;1055;48.854;9.302;2022-12-18T04:02:28;54.00;;;25.80;;
2099;SDS011;1055;48.854;9.302;2022-12-18T04:04:57;52.33;;;24.45;;
2099;SDS011;1055;48.854;9.302;2022-12-18T04:07:25;52.60;;;23.73;;
2099;SDS011;1055;48.854;9.302;2022-12-18T04:09:52;59.38;;;25.40;;
2099;SDS011;1055;48.854;9.302;2022-12-18T04:12:20;50.85;;;23.23;;
2099;SDS011;1055;48.854;9.302;2022-12-18T04:14:46;49.20;;;23.50;;
2099;SDS011;1055;48.854;9.302;2022-12-18T04:17:11;52.60;;;23.50;;
2099;SDS011;1055;48.854;9.302;2022-12-18T04:19:37;50.00;;;23.37;;
2099;SDS011;1055;48.854;9.302;2022-12-18T04:22:02;46.60;;;20.67;;
2099;SDS011;1055;48.854;9.302;2022-12-18T04:24:28;46.07;;;22.50;;
2099;SDS011;1055;48.854;9.302;2022-12-18T04:26:54;51.90;;;23.20;;
2099;SDS011;1055;48.854;9.302;2022-12-18T04:29:19;47.77;;;23.77;;
2099;SDS011;1055;48.854;9.302;2022-12-18T04:31:45;47.97;;;23.23;;
2099;SDS011;1055;48.854;9.302;2022-12-18T04:34:10;52.27;;;23.73;;
2099;SDS011;1055;48.854;9.302;2022-12-18T04:36:36;40.53;;;20.80;;
2099;SDS011;1055;48.854;9.302;2022-12-18T04:39:01;51.33;;;21.27;;
2099;SDS011;1055;48.854;9.302;2022-12-18T04:41:27;55.90;;;21.83;;
2099;SDS011;1055;48.854;9.302;2022-12-18T04:43:53;53.07;;;23.30;;
2099;SDS011;1055;48.854;9.302;2022-12-18T04:46:18;58.00;;;21.87;;
2099;SDS011;1055;48.854;9.302;2022-12-18T04:48:45;45.93;;;21.77;;
2099;SDS011;1055;48.854;9.302;2022-12-18T04:51:11;50.45;;;22.55;;
2099;SDS011;1055;48.854;9.302;2022-12-18T04:53:37;45.63;;;21.40;;
2099;SDS011;1055;48.854;9.302;2022-12-18T04:56:09;47.27;;;21.53;;
2099;SDS011;1055;48.854;9.302;2022-12-18T04:58:38;42.67;;;19.60;;
2099;SDS011;1055;48.854;9.302;2022-12-18T05:01:05;41.75;;;20.45;;
2099;SDS011;1055;48.854;9.302;2022-12-18T05:03:32;39.80;;;20.15;;
2099;SDS011;1055;48.854;9.302;2022-12-18T05:05:59;42.30;;;21.10;;
2099;SDS011;1055;48.854;9.302;2022-12-18T05:08:24;40.20;;;18.50;;
2099;SDS011;1055;48.854;9.302;2022-12-18T05:10:57;45.23;;;20.40;;
2099;SDS011;1055;48.854;9.302;2022-12-18T05:13:27;43.95;;;21.52;;
2099;SDS011;1055;48.854;9.302;2022-12-18T05:15:53;47.50;;;19.98;;
2099;SDS011;1055;48.854;9.302;2022-12-18T05:18:20;44.92;;;21.65;;
2099;SDS011;1055;48.854;9.302;2022-12-18T05:20:46;48.45;;;19.85;;
2099;SDS011;1055;48.854;9.302;2022-12-18T05:23:12;45.90;;;20.47;;
2099;SDS011;1055;48.854;9.302;2022-12-18T05:25:38;47.60;;;21.70;;
2099;SDS011;1055;48.854;9.302;2022-12-18T05:28:03;44.67;;;20.70;;
2099;SDS011;1055;48.854;9.302;2022-12-18T05:30:29;39.37;;;17.80;;
2099;SDS011;1055;48.854;9.302;2022-12-18T05:32:54;43.57;;;20.47;;
2099;SDS011;1055;48.854;9.302;2022-12-18T05:35:20;42.90;;;19.60;;
2099;SDS011;1055;48.854;9.302;2022-12-18T05:37:46;42.63;;;17.70;;
2099;SDS011;1055;48.854;9.302;2022-12-18T05:40:11;45.57;;;19.30;;
2099;SDS011;1055;48.854;9.302;2022-12-18T05:42:37;41.33;;;18.98;;
2099;SDS011;1055;48.854;9.302;2022-12-18T05:45:03;45.30;;;20.40;;
2099;SDS011;1055;48.854;9.302;2022-12-18T05:47:30;45.88;;;20.15;;
2099;SDS011;1055;48.854;9.302;2022-12-18T05:49:55;41.67;;;18.70;;
2099;SDS011;1055;48.854;9.302;2022-12-18T05:52:21;39.93;;;18.33;;
2099;SDS011;1055;48.854;9.302;2022-12-18T05:54:47;44.23;;;19.37;;
2099;SDS011;1055;48.854;9.302;2022-12-18T05:57:12;46.43;;;21.43;;
2099;SDS011;1055;48.854;9.302;2022-12-18T05:59:38;45.67;;;22.20;;
2099;SDS011;1055;48.854;9.302;2022-12-18T06:02:03;42.57;;;18.30;;
2099;SDS011;1055;48.854;9.302;2022-12-18T06:04:30;46.27;;;19.20;;
2099;SDS011;1055;48.854;9.302;2022-12-18T06:06:56;47.65;;;20.23;;
2099;SDS011;1055;48.854;9.302;2022-12-18T06:09:22;46.50;;;20.97;;
2099;SDS011;1055;48.854;9.302;2022-12-18T06:11:48;41.73;;;19.67;;
2099;SDS011;1055;48.854;9.302;2022-12-18T06:14:15;44.30;;;19.42;;
2099;SDS011;1055;48.854;9.302;2022-12-18T06:16:42;43.95;;;19.80;;
2099;SDS011;1055;48.854;9.302;2022-12-18T06:19:13;45.10;;;18.67;;
2099;SDS011;1055;48.854;9.302;2022-12-18T06:21:40;45.55;;;19.88;;
2099;SDS011;1055;48.854;9.302;2022-12-18T06:24:05;45.40;;;20.33;;
2099;SDS011;1055;48.854;9.302;2022-12-18T06:26:31;41.70;;;20.47;;
2099;SDS011;1055;48.854;9.302;2022-12-18T06:28:57;44.40;;;21.00;;
2099;SDS011;1055;48.854;9.302;2022-12-18T06:31:22;40.13;;;19.00;;
2099;SDS011;1055;48.854;9.302;2022-12-18T06:33:48;41.57;;;19.77;;
2099;SDS011;1055;48.854;9.302;2022-12-18T06:36:14;40.50;;;18.60;;
2099;SDS011;1055;48.854;9.302;2022-12-18T06:38:41;40.72;;;18.27;;
2099;SDS011;1055;48.854;9.302;2022-12-18T06:41:11;50.05;;;22.00;;
2099;SDS011;1055;48.854;9.302;2022-12-18T06:43:42;40.92;;;17.45;;
2099;SDS011;1055;48.854;9.302;2022-12-18T06:46:08;41.63;;;17.80;;
2099;SDS011;1055;48.854;9.302;2022-12-18T06:48:34;39.03;;;18.88;;
2099;SDS011;1055;48.854;9.302;2022-12-18T06:51:00;43.00;;;19.37;;
2099;SDS011;1055;48.854;9.302;2022-12-18T06:53:25;36.37;;;17.20;;
2099;SDS011;1055;48.854;9.302;2022-12-18T06:55:51;37.47;;;18.00;;
2099;SDS011;1055;48.854;9.302;2022-12-18T06:58:17;47.00;;;19.00;;
2099;SDS011;1055;48.854;9.302;2022-12-18T07:00:44;44.03;;;17.42;;
2099;SDS011;1055;48.854;9.302;2022-12-18T07:03:12;43.05;;;17.52;;
2099;SDS011;1055;48.854;9.302;2022-12-18T07:05:43;43.40;;;18.15;;
2099;SDS011;1055;48.854;9.302;2022-12-18T07:08:08;44.73;;;18.47;;
2099;SDS011;1055;48.854;9.302;2022-12-18T07:10:40;45.30;;;17.17;;
2099;SDS011;1055;48.854;9.302;2022-12-18T07:13:07;42.28;;;18.77;;
2099;SDS011;1055;48.854;9.302;2022-12-18T07:15:32;44.07;;;20.23;;
2099;SDS011;1055;48.854;9.302;2022-12-18T07:17:58;41.47;;;19.60;;
2099;SDS011;1055;48.854;9.302;2022-12-18T07:20:23;39.40;;;18.17;;
2099;SDS011;1055;48.854;9.302;2022-12-18T07:22:49;46.67;;;20.03;;
2099;SDS011;1055;48.854;9.302;2022-12-18T07:25:15;339.47;;;49.73;;
2099;SDS011;1055;48.854;9.302;2022-12-18T07:27:40;47.20;;;20.33;;
2099;SDS011;1055;48.854;9.302;2022-12-18T07:30:06;44.00;;;19.50;;
2099;SDS011;1055;48.854;9.302;2022-12-18T07:32:32;48.38;;;21.42;;
2099;SDS011;1055;48.854;9.302;2022-12-18T07:34:58;43.67;;;19.17;;
2099;SDS011;1055;48.854;9.302;2022-12-18T07:37:23;49.00;;;20.00;;
2099;SDS011;1055;48.854;9.302;2022-12-18T07:39:49;45.30;;;20.20;;
2099;SDS011;1055;48.854;9.302;2022-12-18T07:42:14;50.03;;;21.93;;
2099;SDS011;1055;48.854;9.302;2022-12-18T07:44:55;40.15;;;18.67;;
2099;SDS011;1055;48.854;9.302;2022-12-18T07:47:21;40.45;;;17.63;;
2099;SDS011;1055;48.854;9.302;2022-12-18T07:49:47;38.57;;;18.30;;
2099;SDS011;1055;48.854;9.302;2022-12-18T07:52:13;48.13;;;20.10;;
2099;SDS011;1055;48.854;9.302;2022-12-18T07:54:39;39.60;;;18.70;;
2099;SDS011;1055;48.854;9.302;2022-12-18T07:57:05;49.83;;;20.50;;
2099;SDS011;1055;48.854;9.302;2022-12-18T07:59:31;46.65;;;19.90;;
2099;SDS011;1055;48.854;9.302;2022-12-18T08:01:57;44.33;;;19.90;;
2099;SDS011;1055;48.854;9.302;2022-12-18T08:04:23;51.90;;;21.52;;
2099;SDS011;1055;48.854;9.302;2022-12-18T08:06:49;46.63;;;21.75;;
2099;SDS011;1055;48.854;9.302;2022-12-18T08:09:15;45.47;;;20.47;;
2099;SDS011;1055;48.854;9.302;2022-12-18T08:11:41;48.42;;;20.40;;
2099;SDS011;1055;48.854;9.302;2022-12-18T08:14:07;55.25;;;23.20;;
2099;SDS011;1055;48.854;9.302;2022-12-18T08:16:33;40.27;;;21.10;;
2099;SDS011;1055;48.854;9.302;2022-12-18T08:18:59;43.90;;;21.47;;
2099;SDS011;1055;48.854;9.302;2022-12-18T08:21:26;46.43;;;21.80;;
2099;SDS011;1055;48.854;9.302;2022-12-18T08:23:54;55.33;;;22.23;;
2099;SDS011;1055;48.854;9.302;2022-12-18T08:26:21;54.13;;;26.70;;
2099;SDS011;1055;48.854;9.302;2022-12-18T08:28:48;59.28;;;28.23;;
2099;SDS011;1055;48.854;9.302;2022-12-18T08:31:15;48.33;;;23.08;;
2099;SDS011;1055;48.854;9.302;2022-12-18T08:33:40;42.70;;;21.63;;
2099;SDS011;1055;48.854;9.302;2022-12-18T08:36:06;50.65;;;24.63;;
2099;SDS011;1055;48.854;9.302;2022-12-18T08:38:33;48.72;;;23.95;;
2099;SDS011;1055;48.854;9.302;2022-12-18T08:40:59;52.93;;;23.53;;
2099;SDS011;1055;48.854;9.302;2022-12-18T08:43:26;55.72;;;24.98;;
2099;SDS011;1055;48.854;9.302;2022-12-18T08:46:11;51.85;;;23.65;;
2099;SDS011;1055;48.854;9.302;2022-12-18T08:48:37;49.80;;;25.27;;
2099;SDS011;1055;48.854;9.302;2022-12-18T08:51:02;53.93;;;26.77;;
2099;SDS011;1055;48.854;9.302;2022-12-18T08:53:28;48.50;;;24.97;;
2099;SDS011;1055;48.854;9.302;2022-12-18T08:55:55;44.60;;;23.03;;
2099;SDS011;1055;48.854;9.302;2022-12-18T08:58:22;60.15;;;26.40;;
2099;SDS011;1055;48.854;9.302;2022-12-18T09:00:47;50.63;;;25.03;;
2099;SDS011;1055;48.854;9.302;2022-12-18T09:03:14;53.67;;;24.43;;
2099;SDS011;1055;48.854;9.302;2022-12-18T09:05:41;46.53;;;22.77;;
2099;SDS011;1055;48.854;9.302;2022-12-18T09:08:07;52.08;;;25.05;;
2099;SDS011;1055;48.854;9.302;2022-12-18T09:10:33;60.10;;;26.47;;
2099;SDS011;1055;48.854;9.302;2022-12-18T09:12:59;48.08;;;23.60;;
2099;SDS011;1055;48.854;9.302;2022-12-18T09:15:24;46.27;;;23.70;;
2099;SDS011;1055;48.854;9.302;2022-12-18T09:17:50;45.13;;;21.70;;
2099;SDS011;1055;48.854;9.302;2022-12-18T09:20:17;54.00;;;25.05;;
2099;SDS011;1055;48.854;9.302;2022-12-18T09:22:44;45.92;;;23.40;;
2099;SDS011;1055;48.854;9.302;2022-12-18T09:25:09;50.57;;;24.13;;
2099;SDS011;1055;48.854;9.302;2022-12-18T09:27:35;49.27;;;23.10;;
2099;SDS011;1055;48.854;9.302;2022-12-18T09:30:01;54.43;;;25.30;;
2099;SDS011;1055;48.854;9.302;2022-12-18T09:32:27;55.75;;;23.85;;
2099;SDS011;1055;48.854;9.302;2022-12-18T09:34:52;48.53;;;23.27;;
2099;SDS011;1055;48.854;9.302;2022-12-18T09:37:18;58.37;;;25.40;;
2099;SDS011;1055;48.854;9.302;2022-12-18T09:39:43;55.70;;;24.47;;
2099;SDS011;1055;48.854;9.302;2022-12-18T09:42:27;50.23;;;26.20;;
2099;SDS011;1055;48.854;9.302;2022-12-18T09:44:53;64.97;;;27.75;;
2099;SDS011;1055;48.854;9.302;2022-12-18T09:47:27;59.25;;;26.58;;
2099;SDS011;1055;48.854;9.302;2022-12-18T09:49:59;67.30;;;28.83;;
2099;SDS011;1055;48.854;9.302;2022-12-18T09:52:39;61.63;;;27.10;;
2099;SDS011;1055;48.854;9.302;2022-12-18T09:57:36;60.63;;;28.60;;
2099;SDS011;1055;48.854;9.302;2022-12-18T10:00:18;59.40;;;26.80;;
2099;SDS011;1055;48.854;9.302;2022-12-18T10:02:45;68.70;;;27.90;;
2099;SDS011;1055;48.854;9.302;2022-12-18T10:05:13;70.53;;;31.48;;
2099;SDS011;1055;48.854;9.302;2022-12-18T10:10:50;65.55;;;29.33;;
2099;SDS011;1055;48.854;9.302;2022-12-18T10:21:14;52.10;;;22.50;;
2099;SDS011;1055;48.854;9.302;2022-12-18T10:23:48;51.85;;;24.10;;
2099;SDS011;1055;48.854;9.302;2022-12-18T10:26:41;59.42;;;24.55;;
2099;SDS011;1055;48.854;9.302;2022-12-18T10:29:09;55.03;;;24.00;;
2099;SDS011;1055;48.854;9.302;2022-12-18T10:31:37;61.08;;;25.83;;
2099;SDS011;1055;48.854;9.302;2022-12-18T10:34:03;53.73;;;23.33;;
2099;SDS011;1055;48.854;9.302;2022-12-18T10:36:28;53.43;;;25.10;;
2099;SDS011;1055;48.854;9.302;2022-12-18T10:38:56;51.90;;;23.00;;
2099;SDS011;1055;48.854;9.302;2022-12-18T10:41:40;58.85;;;24.30;;
2099;SDS011;1055;48.854;9.302;2022-12-18T10:44:15;51.83;;;21.90;;
2099;SDS011;1055;48.854;9.302;2022-12-18T10:46:49;47.35;;;21.63;;
2099;SDS011;1055;48.854;9.302;2022-12-18T10:49:28;51.45;;;23.55;;
2099;SDS011;1055;48.854;9.302;2022-12-18T10:54:45;58.25;;;24.50;;
2099;SDS011;1055;48.854;9.302;2022-12-18T10:57:37;54.30;;;22.48;;
2099;SDS011;1055;48.854;9.302;2022-12-18T11:00:25;76.57;;;26.23;;
2099;SDS011;1055;48.854;9.302;2022-12-18T11:02:53;53.35;;;23.60;;
2099;SDS011;1055;48.854;9.302;2022-12-18T11:05:25;56.03;;;26.13;;
2099;SDS011;1055;48.854;9.302;2022-12-18T11:08:02;59.22;;;24.63;;
2099;SDS011;1055;48.854;9.302;2022-12-18T11:10:32;51.90;;;24.08;;
2099;SDS011;1055;48.854;9.302;2022-12-18T11:13:16;48.75;;;23.48;;
2099;SDS011;1055;48.854;9.302;2022-12-18T11:15:46;46.15;;;21.27;;
2099;SDS011;1055;48.854;9.302;2022-12-18T11:18:32;42.63;;;21.10;;
2099;SDS011;1055;48.854;9.302;2022-12-18T11:21:04;46.15;;;20.95;;
2099;SDS011;1055;48.854;9.302;2022-12-18T11:23:33;47.38;;;22.73;;
2099;SDS011;1055;48.854;9.302;2022-12-18T11:26:03;43.10;;;21.63;;
2099;SDS011;1055;48.854;9.302;2022-12-18T11:28:35;44.03;;;20.95;;
2099;SDS011;1055;48.854;9.302;2022-12-18T11:31:12;40.35;;;19.23;;
2099;SDS011;1055;48.854;9.302;2022-12-18T11:33:42;45.30;;;20.45;;
2099;SDS011;1055;48.854;9.302;2022-12-18T11:36:12;46.42;;;20.83;;
2099;SDS011;1055;48.854;9.302;2022-12-18T11:38:39;44.45;;;21.40;;
2099;SDS011;1055;48.854;9.302;2022-12-18T11:43:42;39.72;;;19.92;;
2099;SDS011;1055;48.854;9.302;2022-12-18T11:46:31;40.97;;;20.48;;
2099;SDS011;1055;48.854;9.302;2022-12-18T11:49:01;41.67;;;19.23;;
2099;SDS011;1055;48.854;9.302;2022-12-18T11:51:34;39.92;;;19.40;;
2099;SDS011;1055;48.854;9.302;2022-12-18T11:54:11;39.97;;;20.02;;
2099;SDS011;1055;48.854;9.302;2022-12-18T11:57:23;42.47;;;19.23;;
2099;SDS011;1055;48.854;9.302;2022-12-18T12:05:41;43.40;;;21.58;;
2099;SDS011;1055;48.854;9.302;2022-12-18T12:16:08;44.75;;;20.33;;
2099;SDS011;1055;48.854;9.302;2022-12-18T12:21:50;41.25;;;18.98;;
2099;SDS011;1055;48.854;9.302;2022-12-18T12:24:37;40.42;;;18.75;;
2099;SDS011;1055;48.854;9.302;2022-12-18T12:27:13;48.08;;;21.67;;
2099;SDS011;1055;48.854;9.302;2022-12-18T12:29:47;40.15;;;19.40;;
2099;SDS011;1055;48.854;9.302;2022-12-18T12:35:23;49.13;;;21.38;;
2099;SDS011;1055;48.854;9.302;2022-12-18T12:40:33;41.17;;;20.08;;
2099;SDS011;1055;48.854;9.302;2022-12-18T12:43:13;44.13;;;20.73;;
2099;SDS011;1055;48.854;9.302;2022-12-18T12:45:47;51.15;;;23.85;;
2099;SDS011;1055;48.854;9.302;2022-12-18T12:48:19;45.85;;;21.42;;
2099;SDS011;1055;48.854;9.302;2022-12-18T12:50:47;41.80;;;19.73;;
2099;SDS011;1055;48.854;9.302;2022-12-18T12:53:17;44.92;;;20.92;;
2099;SDS011;1055;48.854;9.302;2022-12-18T12:55:50;42.58;;;20.67;;
2099;SDS011;1055;48.854;9.302;2022-12-18T12:58:23;42.13;;;18.85;;
2099;SDS011;1055;48.854;9.302;2022-12-18T13:06:14;39.65;;;19.02;;
2099;SDS011;1055;48.854;9.302;2022-12-18T13:09:00;39.85;;;19.45;;
2099;SDS011;1055;48.854;9.302;2022-12-18T13:14:32;41.15;;;19.70;;
2099;SDS011;1055;48.854;9.302;2022-12-18T13:19:50;36.35;;;17.33;;
2099;SDS011;1055;48.854;9.302;2022-12-18T13:22:24;36.38;;;17.88;;
2099;SDS011;1055;48.854;9.302;2022-12-18T13:24:54;38.72;;;19.00;;
2099;SDS011;1055;48.854;9.302;2022-12-18T13:38:55;39.13;;;20.73;;
2099;SDS011;1055;48.854;9.302;2022-12-18T13:43:49;45.55;;;20.83;;
2099;SDS011;1055;48.854;9.302;2022-12-18T13:48:58;41.30;;;19.17;;
2099;SDS011;1055;48.854;9.302;2022-12-18T13:51:49;39.08;;;19.67;;
2099;SDS011;1055;48.854;9.302;2022-12-18T13:57:01;41.25;;;20.15;;
2099;SDS011;1055;48.854;9.302;2022-12-18T13:59:33;41.20;;;20.15;;
2099;SDS011;1055;48.854;9.302;2022-12-18T14:02:09;41.92;;;20.77;;
2099;SDS011;1055;48.854;9.302;2022-12-18T14:04:39;41.15;;;20.52;;
2099;SDS011;1055;48.854;9.302;2022-12-18T14:10:03;42.28;;;20.05;;
2099;SDS011;1055;48.854;9.302;2022-12-18T14:12:32;38.67;;;18.90;;
2099;SDS011;1055;48.854;9.302;2022-12-18T14:20:47;42.05;;;20.50;;
2099;SDS011;1055;48.854;9.302;2022-12-18T14:26:26;42.40;;;20.75;;
2099;SDS011;1055;48.854;9.302;2022-12-18T14:29:00;44.10;;;21.30;;
2099;SDS011;1055;48.854;9.302;2022-12-18T14:31:43;43.13;;;21.73;;
2099;SDS011;1055;48.854;9.302;2022-12-18T14:34:18;41.50;;;21.43;;
2099;SDS011;1055;48.854;9.302;2022-12-18T14:36:53;41.53;;;20.73;;
2099;SDS011;1055;48.854;9.302;2022-12-18T14:39:20;41.97;;;21.05;;
2099;SDS011;1055;48.854;9.302;2022-12-18T14:41:48;47.35;;;22.52;;
2099;SDS011;1055;48.854;9.302;2022-12-18T14:44:15;48.10;;;22.77;;
2099;SDS011;1055;48.854;9.302;2022-12-18T14:46:42;41.50;;;20.43;;
2099;SDS011;1055;48.854;9.302;2022-12-18T14:51:59;40.55;;;22.23;;
2099;SDS011;1055;48.854;9.302;2022-12-18T14:54:27;50.50;;;24.27;;
2099;SDS011;1055;48.854;9.302;2022-12-18T14:57:01;41.25;;;22.05;;
2099;SDS011;1055;48.854;9.302;2022-12-18T14:59:30;46.90;;;22.25;;
2099;SDS011;1055;48.854;9.302;2022-12-18T15:04:36;38.75;;;19.42;;
2099;SDS011;1055;48.854;9.302;2022-12-18T15:07:25;39.92;;;21.48;;
2099;SDS011;1055;48.854;9.302;2022-12-18T15:12:38;41.70;;;20.50;;
2099;SDS011;1055;48.854;9.302;2022-12-18T15:18:01;50.78;;;21.20;;
2099;SDS011;1055;48.854;9.302;2022-12-18T15:20:31;43.40;;;21.85;;
2099;SDS011;1055;48.854;9.302;2022-12-18T15:23:23;41.30;;;18.50;;
2099;SDS011;1055;48.854;9.302;2022-12-18T15:25:55;46.97;;;21.05;;
2099;SDS011;1055;48.854;9.302;2022-12-18T15:28:38;46.92;;;22.15;;
2099;SDS011;1055;48.854;9.302;2022-12-18T15:33:40;39.20;;;20.08;;
2099;SDS011;1055;48.854;9.302;2022-12-18T15:36:12;44.08;;;19.55;;
2099;SDS011;1055;48.854;9.302;2022-12-18T15:38:39;44.78;;;22.67;;
2099;SDS011;1055;48.854;9.302;2022-12-18T15:41:16;42.40;;;20.50;;
2099;SDS011;1055;48.854;9.302;2022-12-18T15:43:43;41.05;;;19.95;;
2099;SDS011;1055;48.854;9.302;2022-12-18T15:46:14;43.05;;;20.73;;
2099;SDS011;1055;48.854;9.302;2022-12-18T15:48:43;44.42;;;21.65;;
2099;SDS011;1055;48.854;9.302;2022-12-18T15:51:11;43.45;;;20.15;;
2099;SDS011;1055;48.854;9.302;2022-12-18T15:53:40;40.67;;;19.75;;
2099;SDS011;1055;48.854;9.302;2022-12-18T15:56:09;39.83;;;19.50;;
2099;SDS011;1055;48.854;9.302;2022-12-18T15:58:55;45.90;;;21.42;;
2099;SDS011;1055;48.854;9.302;2022-12-18T16:01:22;40.63;;;20.98;;
2099;SDS011;1055;48.854;9.302;2022-12-18T16:03:50;39.05;;;18.52;;
2099;SDS011;1055;48.854;9.302;2022-12-18T16:06:15;39.67;;;20.30;;
2099;SDS011;1055;48.854;9.302;2022-12-18T16:08:41;40.97;;;20.33;;
2099;SDS011;1055;48.854;9.302;2022-12-18T16:11:10;40.10;;;20.20;;
2099;SDS011;1055;48.854;9.302;2022-12-18T16:14:19;45.92;;;21.40;;
2099;SDS011;1055;48.854;9.302;2022-12-18T16:16:48;41.38;;;18.67;;
2099;SDS011;1055;48.854;9.302;2022-12-18T16:19:15;43.63;;;19.58;;
2099;SDS011;1055;48.854;9.302;2022-12-18T16:21:41;46.40;;;20.60;;
2099;SDS011;1055;48.854;9.302;2022-12-18T16:24:17;41.38;;;19.77;;
2099;SDS011;1055;48.854;9.302;2022-12-18T16:26:44;40.40;;;19.00;;
2099;SDS011;1055;48.854;9.302;2022-12-18T16:29:10;39.40;;;20.03;;
2099;SDS011;1055;48.854;9.302;2022-12-18T16:31:36;39.75;;;19.27;;
2099;SDS011;1055;48.854;9.302;2022-12-18T16:34:19;41.15;;;21.02;;
2099;SDS011;1055;48.854;9.302;2022-12-18T16:36:47;43.47;;;19.83;;
2099;SDS011;1055;48.854;9.302;2022-12-18T16:39:13;41.75;;;20.10;;
2099;SDS011;1055;48.854;9.302;2022-12-18T16:41:39;43.17;;;19.90;;
2099;SDS011;1055;48.854;9.302;2022-12-18T16:44:05;45.70;;;23.67;;
2099;SDS011;1055;48.854;9.302;2022-12-18T16:46:30;43.00;;;20.57;;
2099;SDS011;1055;48.854;9.302;2022-12-18T16:48:57;43.00;;;20.03;;
2099;SDS011;1055;48.854;9.302;2022-12-18T16:51:23;44.83;;;20.75;;
2099;SDS011;1055;48.854;9.302;2022-12-18T16:53:49;39.77;;;19.00;;
2099;SDS011;1055;48.854;9.302;2022-12-18T16:56:15;40.50;;;19.57;;
2099;SDS011;1055;48.854;9.302;2022-12-18T16:58:40;42.23;;;21.07;;